Time;durP1;ratioP1;P1;durP2;ratioP2;P2;SDS_P1;SDS_P2;PMS_P1;PMS_P2;Temp;Humidity;BMP_temperature;BMP_pressure;BME280_temperature;BME280_humidity;BME280_pressure;Samples;Min_cycle;Max_cycle;Signal;HPM_P1;HPM_P2
2022/01/16 00:04:09;;;;;;;84.13;30.58;;;;;;;;;;5061715;28;20052;-50
2022/01/16 00:06:39;;;;;;;84.13;29.58;;;1.40;99.90;;;;;;5062637;28;20037;-52
2022/01/16 00:09:06;;;;;;;78.22;29.15;;;1.30;99.90;;;;;;5060551;28;20071;-53
2022/01/16 00:11:32;;;;;;;102.22;30.77;;;;;;;;;;5061109;28;20043;-54
2022/01/16 00:13:58;;;;;;;80.90;27.77;;;;;;;;;;5061777;28;20131;-53
2022/01/16 00:16:24;;;;;;;86.40;29.67;;;;;;;;;;5061696;28;20047;-50
2022/01/16 00:18:52;;;;;;;97.03;32.15;;;;;;;;;;5060784;28;20052;-50
2022/01/16 00:21:31;;;;;;;90.05;31.42;;;1.50;99.90;;;;;;5061249;28;20047;-50
2022/01/16 00:23:57;;;;;;;103.80;34.40;;;;;;;;;;5061118;28;20041;-48
2022/01/16 00:26:23;;;;;;;90.82;33.70;;;1.30;99.90;;;;;;5061772;28;20098;-50
2022/01/16 00:28:50;;;;;;;96.28;34.40;;;;;;;;;;5061799;28;21060;-51
2022/01/16 00:31:17;;;;;;;99.15;31.52;;;1.60;99.90;;;;;;5061653;28;20040;-51
2022/01/16 00:33:44;;;;;;;89.90;31.80;;;;;;;;;;5059454;28;20598;-51
2022/01/16 00:36:17;;;;;;;96.40;33.30;;;1.60;99.90;;;;;;5059843;28;20044;-49
2022/01/16 00:38:44;;;;;;;;;;;1.60;99.90;;;;;;5062611;28;20123;-53
2022/01/16 00:41:10;;;;;;;100.90;33.17;;;;;;;;;;5060976;28;20424;-51
2022/01/16 00:43:36;;;;;;;100.45;37.13;;;;;;;;;;5060827;28;20036;-49
2022/01/16 00:46:02;;;;;;;96.50;36.50;;;;;;;;;;5060765;28;20063;-49
2022/01/16 00:48:28;;;;;;;97.53;37.60;;;;;;;;;;5060484;28;20044;-51
2022/01/16 00:50:55;;;;;;;102.30;37.67;;;;;;;;;;5060361;28;20109;-51
2022/01/16 00:53:21;;;;;;;94.93;35.78;;;;;;;;;;5061037;28;20051;-50
2022/01/16 00:55:47;;;;;;;91.05;37.65;;;;;;;;;;5060813;28;20106;-50
2022/01/16 00:58:13;;;;;;;88.78;36.00;;;;;;;;;;5061530;28;20095;-53
2022/01/16 01:00:39;;;;;;;86.20;36.33;;;;;;;;;;5061186;28;20048;-51
2022/01/16 01:03:06;;;;;;;89.20;36.58;;;;;;;;;;5061927;28;20040;-52
2022/01/16 01:05:35;;;;;;;82.68;34.22;;;1.60;99.90;;;;;;5061611;28;20094;-48
2022/01/16 01:08:03;;;;;;;87.78;36.85;;;1.40;99.90;;;;;;5062730;28;20041;-49
2022/01/16 01:10:36;;;;;;;77.50;33.05;;;1.50;99.90;;;;;;5062113;28;20041;-52
2022/01/16 01:13:22;;;;;;;86.82;36.20;;;1.70;99.90;;;;;;5062225;28;20459;-50
2022/01/16 01:15:51;;;;;;;87.88;35.10;;;1.60;99.90;;;;;;5063090;28;20036;-50
2022/01/16 01:18:20;;;;;;;89.05;33.67;;;;;;;;;;5063848;28;20424;-51
2022/01/16 01:20:48;;;;;;;88.10;35.50;;;;;;;;;;5064607;28;20037;-48
2022/01/16 01:23:15;;;;;;;89.32;34.65;;;;;;;;;;5065250;28;20048;-49
2022/01/16 01:25:42;;;;;;;89.28;37.03;;;1.70;99.90;;;;;;5064943;28;20114;-54
2022/01/16 01:28:08;;;;;;;94.93;36.08;;;1.60;99.90;;;;;;5065285;28;20055;-49
2022/01/16 01:30:35;;;;;;;95.88;37.05;;;;;;;;;;5064774;28;20045;-52
2022/01/16 01:33:01;;;;;;;99.22;39.50;;;;;;;;;;5064492;28;20128;-51
2022/01/16 01:35:28;;;;;;;91.55;37.33;;;;;;;;;;5063471;28;20144;-51
2022/01/16 01:37:56;;;;;;;87.28;35.72;;;1.90;99.90;;;;;;5064451;28;20056;-49
2022/01/16 01:40:25;;;;;;;94.90;35.15;;;1.70;99.90;;;;;;5063047;28;20098;-52
2022/01/16 01:51:07;;;;;;;108.60;37.80;;;;;;;;;;5064295;28;20064;-51
2022/01/16 01:53:33;;;;;;;107.00;39.72;;;;;;;;;;5064210;28;20521;-51
2022/01/16 01:55:59;;;;;;;109.05;37.90;;;;;;;;;;5063620;28;20067;-49
2022/01/16 01:58:25;;;;;;;122.57;39.33;;;;;;;;;;5063995;28;20097;-50
2022/01/16 02:00:51;;;;;;;118.20;39.70;;;1.60;99.90;;;;;;5063183;28;20068;-50
2022/01/16 02:05:48;;;;;;;118.07;37.72;;;1.60;99.90;;;;;;5063189;28;20651;-47
2022/01/16 02:08:14;;;;;;;111.07;35.75;;;;;;;;;;5063820;28;20036;-50
2022/01/16 02:10:41;;;;;;;124.85;40.53;;;1.70;99.90;;;;;;5063462;28;20421;-48
2022/01/16 02:13:10;;;;;;;126.00;40.95;;;;;;;;;;5063681;28;20048;-48
2022/01/16 02:31:45;;;;;;;158.45;38.75;;;;;;;;;;5063210;28;20043;-49
2022/01/16 02:37:01;;;;;;;168.75;39.75;;;1.70;99.90;;;;;;5062031;28;20064;-52
2022/01/16 02:39:29;;;;;;;188.50;41.43;;;1.70;99.90;;;;;;5062884;28;20068;-51
2022/01/16 02:41:58;;;;;;;178.02;40.13;;;;;;;;;;5061797;28;20439;-50
2022/01/16 02:46:54;;;;;;;170.65;38.97;;;;;;;;;;5061875;28;20061;-50
2022/01/16 02:49:23;;;;;;;147.77;34.17;;;1.70;99.90;;;;;;5063542;28;20501;-51
2022/01/16 02:51:58;;;;;;;169.63;38.65;;;1.80;99.90;;;;;;5060642;28;20044;-50
2022/01/16 02:54:26;;;;;;;180.80;41.63;;;;;;;;;;5060752;28;20036;-49
2022/01/16 02:56:53;;;;;;;171.57;42.05;;;1.60;99.90;;;;;;5062798;28;20037;-50
2022/01/16 02:59:21;;;;;;;162.15;37.30;;;;;;;;;;5061219;28;20581;-50
2022/01/16 03:01:47;;;;;;;180.38;41.63;;;;;;;;;;5062285;28;20056;-51
2022/01/16 03:04:14;;;;;;;174.68;43.30;;;;;;;;;;5062926;28;20157;-49
2022/01/16 03:06:40;;;;;;;178.05;44.90;;;;;;;;;;5062224;28;20560;-47
2022/01/16 03:09:07;;;;;;;144.50;39.83;;;;;;;;;;5063462;28;20516;-52
2022/01/16 03:11:39;;;;;;;148.18;38.58;;;1.70;99.90;;;;;;5063229;28;20044;-50
2022/01/16 03:14:13;;;;;;;133.70;37.45;;;1.80;99.90;;;;;;5063655;28;20505;-52
2022/01/16 03:16:44;;;;;;;148.93;37.50;;;1.80;99.90;;;;;;5061155;28;20064;-50
2022/01/16 03:22:02;;;;;;;122.07;33.08;;;1.80;99.90;;;;;;5061963;28;20090;-51
2022/01/16 03:24:32;;;;;;;147.98;37.90;;;1.90;99.90;;;;;;5061103;28;20040;-51
2022/01/16 03:27:01;;;;;;;141.80;38.80;;;1.80;99.90;;;;;;5059117;28;20052;-46
2022/01/16 03:29:28;;;;;;;149.70;39.38;;;1.80;99.90;;;;;;5062847;28;20528;-49
2022/01/16 03:31:55;;;;;;;162.15;42.67;;;1.80;99.90;;;;;;5062675;28;20052;-50
2022/01/16 03:34:21;;;;;;;147.05;38.72;;;;;;;;;;5063321;28;20048;-54
2022/01/16 03:36:47;;;;;;;152.30;39.25;;;;;;;;;;5063158;28;20032;-49
2022/01/16 03:39:13;;;;;;;166.88;42.38;;;;;;;;;;5059985;28;20497;-50
2022/01/16 03:41:39;;;;;;;172.02;41.60;;;;;;;;;;5061974;28;20066;-52
2022/01/16 03:44:06;;;;;;;118.32;34.83;;;2.00;99.90;;;;;;5062098;28;20032;-51
2022/01/16 03:46:38;;;;;;;170.93;42.03;;;1.80;99.90;;;;;;5063772;28;20083;-49
2022/01/16 03:49:11;;;;;;;200.90;47.13;;;1.90;99.90;;;;;;5061716;28;20033;-53
2022/01/16 03:51:39;;;;;;;168.75;44.03;;;1.80;99.90;;;;;;5062322;28;20048;-50
2022/01/16 03:54:07;;;;;;;163.82;43.28;;;2.10;99.90;;;;;;5062844;28;21088;-48
2022/01/16 03:56:35;;;;;;;171.73;42.75;;;1.90;99.90;;;;;;5061848;28;20044;-52
2022/01/16 03:59:01;;;;;;;182.60;43.85;;;;;;;;;;5062636;28;20043;-51
2022/01/16 04:01:29;;;;;;;182.48;45.33;;;1.90;99.90;;;;;;5060583;28;20131;-48
2022/01/16 04:03:55;;;;;;;158.00;41.45;;;;;;;;;;5061409;28;20068;-50
2022/01/16 04:06:22;;;;;;;187.68;43.65;;;;;;;;;;5062386;28;20048;-51
2022/01/16 04:08:51;;;;;;;185.48;44.40;;;2.10;99.90;;;;;;5061653;28;20045;-53
2022/01/16 04:11:17;;;;;;;177.27;42.90;;;;;;;;;;5061503;28;20452;-51
2022/01/16 04:13:55;;;;;;;187.88;43.63;;;;;;;;;;5060766;28;20041;-52
2022/01/16 04:16:23;;;;;;;143.57;34.67;;;2.00;99.90;;;;;;5061182;28;20051;-53
2022/01/16 04:18:51;;;;;;;174.18;45.72;;;2.20;99.90;;;;;;5061452;28;20040;-49
2022/01/16 04:21:22;;;;;;;160.85;41.83;;;2.20;99.90;;;;;;5061255;28;20033;-51
2022/01/16 04:23:48;;;;;;;188.18;48.60;;;;;;;;;;5061693;28;20036;-52
2022/01/16 04:26:15;;;;;;;178.50;42.33;;;2.20;99.90;;;;;;5060496;28;20464;-52
2022/01/16 04:28:41;;;;;;;147.23;40.65;;;;;;;;;;5060942;28;20618;-48
2022/01/16 04:31:09;;;;;;;187.35;46.22;;;2.40;99.90;;;;;;5061113;28;20045;-51
2022/01/16 04:33:36;;;;;;;195.20;46.80;;;;;;;;;;5058675;28;20032;-47
2022/01/16 04:36:02;;;;;;;175.63;46.15;;;;;;;;;;5059180;28;20500;-49
2022/01/16 04:38:28;;;;;;;199.85;47.30;;;;;;;;;;5061315;28;20187;-50
2022/01/16 04:43:48;;;;;;;175.05;46.15;;;;;;;;;;5058485;28;20047;-49
2022/01/16 04:46:20;;;;;;;182.10;44.35;;;2.60;99.90;;;;;;5061199;28;20119;-51
2022/01/16 04:48:46;;;;;;;189.85;46.40;;;;;;;;;;5059898;28;20047;-51
2022/01/16 04:51:12;;;;;;;201.35;49.05;;;;;;;;;;5064521;28;20083;-50
2022/01/16 04:53:39;;;;;;;193.38;45.30;;;2.50;99.90;;;;;;5063607;28;20769;-50
2022/01/16 04:56:06;;;;;;;191.55;45.33;;;2.50;99.90;;;;;;5065943;28;20036;-51
2022/01/16 04:58:33;;;;;;;204.63;49.65;;;2.70;99.90;;;;;;5065184;28;20044;-47
2022/01/16 05:00:59;;;;;;;212.02;46.60;;;;;;;;;;5064713;28;20059;-51
2022/01/16 05:03:28;;;;;;;210.85;47.88;;;2.70;99.90;;;;;;5065630;28;20386;-52
2022/01/16 05:05:56;;;;;;;207.10;49.47;;;2.70;99.90;;;;;;5064483;28;20277;-53
2022/01/16 05:08:22;;;;;;;230.65;50.65;;;;;;;;;;5065193;28;20044;-49
2022/01/16 05:10:52;;;;;;;192.50;45.80;;;;;;;;;;5064234;28;20036;-50
2022/01/16 05:18:41;;;;;;;232.60;50.83;;;2.70;99.90;;;;;;5064724;28;20079;-51
2022/01/16 05:21:10;;;;;;;204.85;46.53;;;2.80;99.90;;;;;;5064829;28;20078;-53
2022/01/16 05:23:36;;;;;;;211.07;48.72;;;;;;;;;;5063197;28;20162;-48
2022/01/16 05:26:04;;;;;;;260.20;52.40;;;2.80;99.90;;;;;;5064659;28;20056;-48
2022/01/16 05:28:31;;;;;;;225.00;50.70;;;2.70;99.90;;;;;;5063778;28;20039;-50
2022/01/16 05:30:58;;;;;;;246.82;49.78;;;2.80;99.90;;;;;;5064751;28;20449;-50
2022/01/16 05:33:24;;;;;;;241.38;49.80;;;;;;;;;;5064074;28;20389;-48
2022/01/16 05:35:50;;;;;;;191.88;43.88;;;;;;;;;;5063486;28;20110;-50
2022/01/16 05:38:16;;;;;;;231.75;51.38;;;;;;;;;;5065636;28;20106;-52
2022/01/16 05:40:43;;;;;;;252.80;52.92;;;;;;;;;;5064093;28;20043;-50
2022/01/16 05:43:09;;;;;;;212.60;48.05;;;;;;;;;;5063776;28;20051;-48
2022/01/16 05:45:37;;;;;;;216.75;50.17;;;2.90;99.90;;;;;;5063301;28;20029;-48
2022/01/16 05:48:03;;;;;;;190.82;43.83;;;;;;;;;;5062430;28;20070;-52
2022/01/16 05:50:31;;;;;;;210.70;49.60;;;;;;;;;;5064666;28;20033;-48
2022/01/16 05:52:57;;;;;;;223.38;50.33;;;;;;;;;;5062160;28;20045;-50
2022/01/16 05:55:26;;;;;;;205.90;48.90;;;;;;;;;;5064430;28;20037;-48
2022/01/16 05:57:53;;;;;;;219.07;51.20;;;;;;;;;;5062998;28;20044;-52
2022/01/16 06:00:19;;;;;;;186.88;47.00;;;;;;;;;;5062557;28;20135;-51
2022/01/16 06:02:45;;;;;;;211.13;50.03;;;;;;;;;;5062906;28;20110;-50
2022/01/16 06:05:12;;;;;;;212.73;49.58;;;;;;;;;;5062031;28;20048;-52
2022/01/16 06:07:40;;;;;;;212.88;51.38;;;;;;;;;;5063767;28;20040;-52
2022/01/16 06:10:08;;;;;;;214.20;56.05;;;3.10;99.90;;;;;;5063690;28;20049;-53
2022/01/16 06:12:35;;;;;;;195.90;52.03;;;;;;;;;;5063353;28;20509;-48
2022/01/16 06:15:01;;;;;;;224.20;55.15;;;;;;;;;;5063655;28;20902;-50
2022/01/16 06:17:27;;;;;;;202.27;48.55;;;;;;;;;;5064536;28;20074;-52
2022/01/16 06:19:52;;;;;;;214.45;53.45;;;3.20;99.90;;;;;;5064350;28;20048;-52
2022/01/16 06:22:18;;;;;;;201.35;50.22;;;;;;;;;;5064011;28;20119;-52
2022/01/16 06:24:46;;;;;;;206.20;53.70;;;3.10;99.90;;;;;;5064349;28;20040;-51
2022/01/16 06:27:14;;;;;;;197.73;49.75;;;3.30;99.90;;;;;;5065030;28;20044;-53
2022/01/16 06:29:40;;;;;;;199.48;50.58;;;;;;;;;;5063116;28;20036;-48
2022/01/16 06:32:06;;;;;;;210.82;54.78;;;;;;;;;;5064124;28;20051;-49
2022/01/16 06:34:32;;;;;;;191.35;50.55;;;;;;;;;;5064149;28;20040;-52
2022/01/16 06:36:58;;;;;;;215.65;55.83;;;;;;;;;;5064903;28;20037;-52
2022/01/16 06:39:25;;;;;;;206.40;54.28;;;;;;;;;;5064231;28;20119;-49
2022/01/16 06:41:51;;;;;;;198.10;52.97;;;;;;;;;;5062185;28;20064;-49
2022/01/16 06:44:17;;;;;;;217.85;54.30;;;;;;;;;;5063467;28;20037;-50
2022/01/16 06:46:43;;;;;;;201.57;55.03;;;;;;;;;;5062448;28;20044;-50
2022/01/16 06:49:10;;;;;;;215.23;56.00;;;;;;;;;;5063480;28;20382;-49
2022/01/16 06:51:38;;;;;;;192.73;55.65;;;3.30;99.90;;;;;;5061877;28;20055;-49
2022/01/16 06:54:04;;;;;;;200.30;53.75;;;;;;;;;;5061713;28;20044;-52
2022/01/16 06:56:31;;;;;;;193.52;53.47;;;3.50;99.90;;;;;;5061978;28;20519;-51
2022/01/16 06:58:58;;;;;;;184.85;53.33;;;3.40;99.90;;;;;;5063146;28;20036;-51
2022/01/16 07:01:26;;;;;;;205.07;55.83;;;3.50;99.90;;;;;;5061776;28;20080;-49
2022/01/16 07:03:54;;;;;;;190.75;54.53;;;3.50;99.90;;;;;;5061566;28;20543;-51
2022/01/16 07:06:20;;;;;;;207.02;55.80;;;;;;;;;;5061373;28;20060;-49
2022/01/16 07:08:46;;;;;;;197.18;54.38;;;;;;;;;;5061213;28;20043;-49
2022/01/16 07:11:12;;;;;;;189.73;56.28;;;;;;;;;;5061805;28;20136;-50
2022/01/16 07:13:39;;;;;;;183.20;55.00;;;;;;;;;;5061078;28;20044;-53
2022/01/16 07:16:06;;;;;;;194.40;55.95;;;3.50;99.90;;;;;;5061947;28;20075;-49
2022/01/16 07:18:32;;;;;;;176.60;54.50;;;;;;;;;;5062604;28;20036;-47
2022/01/16 07:20:58;;;;;;;190.63;55.20;;;;;;;;;;5061776;28;20071;-52
2022/01/16 07:23:24;;;;;;;172.65;54.22;;;;;;;;;;5062503;28;20067;-51
2022/01/16 07:25:50;;;;;;;166.90;53.13;;;3.70;99.90;;;;;;5061277;28;20041;-53
2022/01/16 07:28:16;;;;;;;151.57;48.28;;;;;;;;;;5061568;28;20044;-50
2022/01/16 07:30:43;;;;;;;161.25;52.40;;;;;;;;;;5063398;28;20056;-51
2022/01/16 07:33:09;;;;;;;159.68;51.45;;;;;;;;;;5063431;28;20056;-50
2022/01/16 07:35:36;;;;;;;149.88;51.78;;;4.00;99.90;;;;;;5062911;28;20501;-49
2022/01/16 07:38:03;;;;;;;154.43;51.53;;;3.90;99.90;;;;;;5062079;28;20112;-53
2022/01/16 07:40:29;;;;;;;152.63;51.72;;;3.80;99.90;;;;;;5061563;28;20044;-51
2022/01/16 07:42:56;;;;;;;152.75;52.17;;;3.90;99.90;;;;;;5062712;28;20037;-52
2022/01/16 07:45:23;;;;;;;140.57;48.17;;;3.70;99.90;;;;;;5063388;28;20035;-52
2022/01/16 07:47:49;;;;;;;156.18;50.80;;;;;;;;;;5060599;28;20044;-50
2022/01/16 07:50:16;;;;;;;141.35;51.60;;;;;;;;;;5059179;28;20370;-52
2022/01/16 07:52:42;;;;;;;138.93;50.00;;;4.00;99.90;;;;;;5061007;28;20040;-48
2022/01/16 07:55:09;;;;;;;130.35;50.72;;;;;;;;;;5060297;28;20049;-53
2022/01/16 07:57:35;;;;;;;123.00;47.78;;;;;;;;;;5063245;28;20143;-53
2022/01/16 08:00:04;;;;;;;122.60;47.47;;;3.80;99.90;;;;;;5061430;28;20037;-52
2022/01/16 08:02:30;;;;;;;113.03;45.90;;;;;;;;;;5059829;28;20114;-50
2022/01/16 08:04:56;;;;;;;113.22;45.20;;;;;;;;;;5060994;28;20417;-53
2022/01/16 08:07:22;;;;;;;109.65;45.03;;;;;;;;;;5059297;28;20516;-50
2022/01/16 08:09:48;;;;;;;109.25;46.55;;;;;;;;;;5060487;28;20040;-50
2022/01/16 08:12:14;;;;;;;101.93;46.20;;;;;;;;;;5061399;28;20052;-51
2022/01/16 08:14:40;;;;;;;102.18;43.45;;;;;;;;;;5062049;28;20107;-49
2022/01/16 08:17:06;;;;;;;96.28;44.75;;;;;;;;;;5060759;28;20045;-52
2022/01/16 08:19:32;;;;;;;100.82;43.38;;;4.20;99.90;;;;;;5061070;28;20036;-51
2022/01/16 08:21:58;;;;;;;97.60;44.13;;;;;;;;;;5061844;28;20043;-50
2022/01/16 08:24:25;;;;;;;94.45;44.08;;;;;;;;;;5061255;28;20040;-52
2022/01/16 08:26:52;;;;;;;97.22;43.42;;;4.30;99.90;;;;;;5063937;28;20036;-51
2022/01/16 08:29:19;;;;;;;78.10;40.30;;;;;;;;;;5063124;28;20799;-52
2022/01/16 08:31:45;;;;;;;79.35;39.42;;;;;;;;;;5065200;28;20041;-54
2022/01/16 08:34:13;;;;;;;84.57;42.25;;;4.30;99.90;;;;;;5063287;28;20048;-53
2022/01/16 08:36:38;;;;;;;82.78;40.60;;;4.40;99.90;;;;;;5065670;28;20044;-55
2022/01/16 08:39:05;;;;;;;76.68;39.95;;;;;;;;;;5065213;28;20044;-53
2022/01/16 08:41:32;;;;;;;80.88;41.00;;;4.60;99.90;;;;;;5066473;28;20036;-53
2022/01/16 08:43:59;;;;;;;80.50;40.50;;;;;;;;;;5066451;28;20579;-52
2022/01/16 08:46:25;;;;;;;78.22;39.00;;;4.60;99.90;;;;;;5065540;28;20044;-51
2022/01/16 08:48:52;;;;;;;71.53;39.67;;;4.70;99.90;;;;;;5062239;28;20078;-52
2022/01/16 08:51:18;;;;;;;73.60;38.58;;;4.90;99.90;;;;;;5066042;28;20158;-54
2022/01/16 08:53:45;;;;;;;67.30;38.63;;;4.80;99.90;;;;;;5066312;28;20413;-52
2022/01/16 08:56:15;;;;;;;70.93;36.78;;;5.00;99.90;;;;;;5064137;28;20044;-54
2022/01/16 08:58:41;;;;;;;68.03;36.42;;;;;;;;;;5064010;28;20043;-53
2022/01/16 09:01:06;;;;;;;59.65;34.35;;;4.90;99.90;;;;;;5063767;28;20106;-52
2022/01/16 09:03:33;;;;;;;65.30;36.40;;;5.10;99.90;;;;;;5066048;28;20049;-53
2022/01/16 09:05:59;;;;;;;63.45;32.83;;;5.00;99.90;;;;;;5064620;28;20050;-53
2022/01/16 09:08:25;;;;;;;56.92;34.30;;;;;;;;;;5064387;28;20416;-52
2022/01/16 09:10:51;;;;;;;57.65;31.67;;;5.10;99.90;;;;;;5062584;28;20043;-53
2022/01/16 09:13:18;;;;;;;58.35;32.95;;;5.20;99.90;;;;;;5063709;28;20248;-54
2022/01/16 09:15:47;;;;;;;59.58;32.03;;;5.10;99.90;;;;;;5063859;28;20809;-52
2022/01/16 09:18:13;;;;;;;49.15;30.42;;;5.10;99.90;;;;;;5063520;28;20040;-54
2022/01/16 09:20:39;;;;;;;50.92;31.85;;;5.10;99.90;;;;;;5062634;28;20071;-54
2022/01/16 09:23:05;;;;;;;58.10;30.77;;;;;;;;;;5064079;28;22055;-54
2022/01/16 09:25:31;;;;;;;58.85;32.40;;;;;;;;;;5064526;28;20047;-55
2022/01/16 09:27:57;;;;;;;53.53;30.90;;;;;;;;;;5063033;28;20109;-53
2022/01/16 09:30:24;;;;;;;53.53;30.67;;;5.40;99.90;;;;;;5061897;28;20044;-52
2022/01/16 09:32:50;;;;;;;51.78;29.90;;;5.40;99.90;;;;;;5064486;28;20673;-53
2022/01/16 09:35:16;;;;;;;44.17;27.60;;;5.30;99.90;;;;;;5064742;28;20036;-53
2022/01/16 09:37:43;;;;;;;50.28;28.02;;;5.30;99.90;;;;;;5062843;28;20501;-53
2022/01/16 09:40:10;;;;;;;45.42;27.25;;;5.40;99.90;;;;;;5063617;28;20044;-54
2022/01/16 09:42:36;;;;;;;43.33;28.23;;;5.50;99.90;;;;;;5062151;28;20439;-54
2022/01/16 09:45:05;;;;;;;49.90;27.45;;;5.70;99.90;;;;;;5063179;28;20058;-53
2022/01/16 09:47:31;;;;;;;47.78;28.25;;;5.70;99.90;;;;;;5063795;28;20575;-51
2022/01/16 09:49:56;;;;;;;48.80;26.30;;;5.40;99.90;;;;;;5062382;28;20714;-54
2022/01/16 09:52:24;;;;;;;46.40;28.27;;;5.60;99.90;;;;;;5064265;28;20037;-55
2022/01/16 09:54:50;;;;;;;43.33;26.08;;;5.70;99.90;;;;;;5061858;28;20044;-54
2022/01/16 09:57:16;;;;;;;44.40;26.38;;;5.60;99.90;;;;;;5062983;28;20033;-54
2022/01/16 09:59:45;;;;;;;59.35;29.33;;;5.70;99.90;;;;;;5063488;28;20059;-55
2022/01/16 10:02:12;;;;;;;47.90;26.75;;;5.70;99.90;;;;;;5063061;28;20044;-54
2022/01/16 10:04:42;;;;;;;41.05;26.60;;;5.90;99.90;;;;;;5062949;28;20556;-55
2022/01/16 10:07:17;;;;;;;46.55;26.52;;;5.60;99.90;;;;;;5063591;28;20037;-53
2022/01/16 10:10:07;;;;;;;46.40;26.08;;;5.80;99.90;;;;;;5063360;28;20040;-55
2022/01/16 10:12:40;;;;;;;46.78;25.38;;;5.70;99.90;;;;;;5061032;28;20090;-55
2022/01/16 10:15:21;;;;;;;51.22;24.85;;;5.80;99.90;;;;;;5062291;28;20063;-55
2022/01/16 10:17:49;;;;;;;50.95;25.08;;;5.70;99.90;;;;;;5062396;28;20040;-55
2022/01/16 10:20:16;;;;;;;47.67;22.35;;;5.80;99.90;;;;;;5061743;28;20036;-55
2022/01/16 10:22:46;;;;;;;43.65;23.85;;;5.70;99.90;;;;;;5063527;28;20028;-55
2022/01/16 10:25:14;;;;;;;44.28;22.95;;;5.90;99.90;;;;;;5062438;28;20496;-52
2022/01/16 10:27:42;;;;;;;43.00;22.95;;;6.00;99.90;;;;;;5060850;28;20346;-55
2022/01/16 10:30:12;;;;;;;39.50;22.10;;;6.00;99.90;;;;;;5062820;28;20051;-55
2022/01/16 10:32:43;;;;;;;44.65;23.17;;;6.10;99.90;;;;;;5063061;28;20036;-55
2022/01/16 10:35:20;;;;;;;42.03;22.43;;;6.00;99.90;;;;;;5061587;28;20040;-54
2022/01/16 10:37:49;;;;;;;43.33;21.95;;;6.00;99.90;;;;;;5063114;28;20040;-54
2022/01/16 10:40:32;;;;;;;38.35;21.27;;;6.00;99.90;;;;;;5062444;28;20040;-54
2022/01/16 10:43:03;;;;;;;40.90;20.98;;;6.10;99.90;;;;;;5061757;28;20082;-55
2022/01/16 10:45:30;;;;;;;35.10;21.08;;;6.10;99.90;;;;;;5063386;28;20040;-53
2022/01/16 10:48:00;;;;;;;32.92;18.73;;;6.10;99.90;;;;;;5061276;28;20052;-55
2022/01/16 10:50:35;;;;;;;37.53;19.98;;;6.00;99.90;;;;;;5061233;28;20047;-54
2022/01/16 10:53:15;;;;;;;32.17;19.60;;;6.10;99.90;;;;;;5062843;28;20045;-54
2022/01/16 10:55:44;;;;;;;32.78;19.23;;;6.00;99.90;;;;;;5062000;28;20132;-56
2022/01/16 10:58:11;;;;;;;31.92;17.50;;;6.00;99.90;;;;;;5061073;28;20923;-55
2022/01/16 11:00:39;;;;;;;37.67;18.15;;;6.00;99.90;;;;;;5061127;28;20416;-55
2022/01/16 11:03:07;;;;;;;34.17;17.15;;;6.00;99.90;;;;;;5061501;28;20487;-54
2022/01/16 11:05:35;;;;;;;32.47;17.38;;;6.20;99.90;;;;;;5061695;28;20537;-54
2022/01/16 11:08:09;;;;;;;34.15;18.77;;;6.30;99.90;;;;;;5061298;28;20775;-55
2022/01/16 11:10:48;;;;;;;30.88;16.15;;;6.20;99.90;;;;;;5063101;28;20443;-55
2022/01/16 11:13:16;;;;;;;27.80;15.55;;;6.10;99.90;;;;;;5061914;28;20075;-55
2022/01/16 11:15:48;;;;;;;26.52;15.25;;;6.10;99.90;;;;;;5060143;28;20041;-54
2022/01/16 11:18:16;;;;;;;26.73;14.23;;;6.10;99.90;;;;;;5061151;28;20043;-54
2022/01/16 11:20:51;;;;;;;25.38;12.55;;;6.30;99.90;;;;;;5061883;28;20040;-53
2022/01/16 11:25:54;;;;;;;26.67;14.52;;;6.10;99.90;;;;;;5062312;28;20738;-53
2022/01/16 11:28:20;;;;;;;27.35;13.45;;;6.30;99.90;;;;;;5061110;28;20439;-55
2022/01/16 11:30:52;;;;;;;29.80;13.40;;;6.30;99.90;;;;;;5062932;28;20106;-54
2022/01/16 11:33:19;;;;;;;30.70;11.13;;;6.30;99.90;;;;;;5061694;28;20527;-53
2022/01/16 11:35:59;;;;;;;29.77;11.90;;;6.10;99.90;;;;;;5062861;28;20304;-54
2022/01/16 11:38:33;;;;;;;23.73;11.40;;;6.30;99.90;;;;;;5063517;28;20307;-54
2022/01/16 11:41:25;;;;;;;29.35;11.25;;;6.30;99.90;;;;;;5064080;28;20501;-55
2022/01/16 11:43:55;;;;;;;24.55;9.63;;;6.30;99.90;;;;;;5060599;28;20117;-54
2022/01/16 11:46:26;;;;;;;27.17;9.43;;;6.30;99.90;;;;;;5063851;28;20045;-55
2022/01/16 11:49:01;;;;;;;28.52;10.60;;;6.30;99.90;;;;;;5061885;28;20135;-55
2022/01/16 11:51:37;;;;;;;22.90;9.32;;;6.20;99.90;;;;;;5063371;28;20044;-55
2022/01/16 11:54:30;;;;;;;24.27;10.05;;;6.40;99.90;;;;;;5062596;28;20528;-54
2022/01/16 11:57:03;;;;;;;24.02;9.40;;;6.30;99.90;;;;;;5060795;28;20136;-53
2022/01/16 11:59:34;;;;;;;22.30;9.02;;;6.40;99.90;;;;;;5062358;28;20055;-54
2022/01/16 12:02:16;;;;;;;22.38;8.77;;;6.40;99.90;;;;;;5061128;28;20060;-54
2022/01/16 12:04:49;;;;;;;24.63;9.30;;;6.60;99.90;;;;;;5062823;28;20041;-53
2022/01/16 12:07:19;;;;;;;27.20;9.45;;;6.40;99.90;;;;;;5063566;28;20041;-55
2022/01/16 12:12:16;;;;;;;20.23;7.95;;;6.40;99.90;;;;;;5060955;28;20264;-56
2022/01/16 12:15:06;;;;;;;21.00;8.13;;;6.50;99.90;;;;;;5060060;28;20036;-55
2022/01/16 12:17:59;;;;;;;24.05;8.35;;;6.40;99.90;;;;;;5061653;28;20036;-54
2022/01/16 12:20:26;;;;;;;19.98;8.02;;;6.50;99.90;;;;;;5004803;28;20049;-55
2022/01/16 12:23:03;;;;;;;22.23;7.82;;;6.40;99.90;;;;;;5004202;28;20449;-55
2022/01/16 12:25:32;;;;;;;16.27;7.72;;;6.40;99.90;;;;;;5008171;28;20498;-54
2022/01/16 12:28:41;;;;;;;18.10;8.35;;;6.50;99.90;;;;;;5015085;28;20136;-55
2022/01/16 12:31:08;;;;;;;18.55;8.40;;;6.40;99.90;;;;;;4959507;28;20741;-55
2022/01/16 12:33:39;;;;;;;17.50;8.43;;;6.30;99.90;;;;;;4960315;28;20054;-55
2022/01/16 12:36:12;;;;;;;23.05;7.97;;;6.50;99.90;;;;;;4958375;28;20654;-55
2022/01/16 12:38:53;;;;;;;23.52;8.63;;;6.50;99.90;;;;;;4959792;28;20138;-55
2022/01/16 12:41:27;;;;;;;22.40;8.38;;;6.60;99.90;;;;;;4960271;28;20050;-55
2022/01/16 12:44:17;;;;;;;19.45;9.02;;;6.40;99.90;;;;;;4960405;28;20157;-51
2022/01/16 12:46:52;;;;;;;22.17;8.00;;;6.30;99.90;;;;;;4941425;28;20051;-54
2022/01/16 12:49:26;;;;;;;20.77;9.88;;;6.60;99.90;;;;;;4940642;28;20421;-55
2022/01/16 12:51:54;;;;;;;20.60;8.75;;;6.60;99.90;;;;;;4940349;28;20054;-56
2022/01/16 12:54:27;;;;;;;18.13;8.35;;;6.50;99.90;;;;;;4941476;28;20138;-53
2022/01/16 12:56:58;;;;;;;20.00;9.02;;;6.50;99.90;;;;;;4945918;28;20042;-54
2022/01/16 12:59:26;;;;;;;21.33;8.35;;;6.60;99.90;;;;;;4999406;28;20058;-53
2022/01/16 13:01:55;;;;;;;20.65;8.27;;;6.50;99.90;;;;;;4999728;28;20513;-55
2022/01/16 13:04:33;;;;;;;19.65;8.88;;;6.40;99.90;;;;;;4999873;28;20430;-55
2022/01/16 13:07:02;;;;;;;26.27;9.07;;;6.60;99.90;;;;;;5023865;28;20519;-54
2022/01/16 13:09:29;;;;;;;28.02;8.75;;;5.50;99.90;;;;;;5037960;28;20045;-55
2022/01/16 13:12:00;;;;;;;24.70;8.88;;;6.40;99.90;;;;;;5023194;28;20056;-54
2022/01/16 13:14:38;;;;;;;19.53;8.10;;;6.40;99.90;;;;;;5041060;28;20049;-55
2022/01/16 13:17:09;;;;;;;21.80;8.40;;;6.60;99.90;;;;;;5039621;28;20079;-55
2022/01/16 13:19:49;;;;;;;25.27;9.13;;;6.40;99.90;;;;;;5041579;28;20048;-55
2022/01/16 13:22:25;;;;;;;17.50;8.68;;;7.30;99.90;;;;;;5039795;28;20055;-55
2022/01/16 13:25:06;;;;;;;24.63;8.52;;;6.30;99.90;;;;;;5060439;28;20518;-55
2022/01/16 13:27:42;;;;;;;21.00;9.35;;;6.20;99.90;;;;;;5063984;28;20435;-55
2022/01/16 13:30:17;;;;;;;20.25;8.98;;;6.50;99.90;;;;;;5063484;28;20051;-56
2022/01/16 13:32:45;;;;;;;25.60;8.35;;;6.30;99.90;;;;;;5063588;28;20064;-55
2022/01/16 13:35:17;;;;;;;23.92;9.80;;;6.40;99.90;;;;;;5063178;28;20040;-55
2022/01/16 13:37:43;;;;;;;18.15;8.15;;;6.50;99.90;;;;;;5064606;28;20029;-55
2022/01/16 13:40:11;;;;;;;23.17;8.50;;;6.50;99.90;;;;;;5063594;28;20044;-56
2022/01/16 13:43:02;;;;;;;21.55;8.35;;;6.40;99.90;;;;;;5062522;28;20524;-53
2022/01/16 13:45:39;;;;;;;18.70;8.35;;;6.50;99.90;;;;;;5063626;28;21916;-55
2022/01/16 13:48:07;;;;;;;20.85;8.40;;;6.60;99.90;;;;;;5063176;28;20048;-56
2022/01/16 13:50:53;;;;;;;19.27;8.30;;;6.70;99.90;;;;;;5061692;28;20033;-55
2022/01/16 13:53:24;;;;;;;20.65;8.93;;;6.50;99.90;;;;;;5062325;28;21439;-54
2022/01/16 13:55:56;;;;;;;26.52;9.98;;;6.70;99.90;;;;;;5063275;28;20504;-55
2022/01/16 13:58:26;;;;;;;;;;;6.50;99.90;;;;;;5063423;28;20101;-54
2022/01/16 14:00:54;;;;;;;23.05;8.07;;;6.60;99.90;;;;;;5063079;28;20007;-56
2022/01/16 14:03:23;;;;;;;21.30;8.43;;;6.70;99.90;;;;;;5063415;28;20040;-55
2022/01/16 14:05:54;;;;;;;19.02;7.53;;;6.80;99.90;;;;;;5063492;28;20504;-55
2022/01/16 14:08:27;;;;;;;24.50;8.73;;;6.90;99.90;;;;;;5064449;28;20490;-55
2022/01/16 14:11:05;;;;;;;24.73;9.07;;;6.70;99.90;;;;;;5061802;28;20089;-55